createdAt,value
2022-11-14T00:01:51.015Z,100765.00
2022-11-14T00:04:28.271Z,100765.00
2022-11-14T00:07:00.233Z,100768.00
2022-11-14T00:09:33.005Z,100777.00
2022-11-14T00:12:03.779Z,100783.00
2022-11-14T00:14:38.245Z,100775.00
2022-11-14T00:17:11.352Z,100779.00
2022-11-14T00:19:42.110Z,100778.00
2022-11-14T00:22:17.576Z,100778.00
2022-11-14T00:24:50.382Z,100775.00
2022-11-14T00:27:20.953Z,100774.00
2022-11-14T00:29:54.163Z,100769.00
2022-11-14T00:32:23.941Z,100769.00
2022-11-14T00:34:54.024Z,100755.00
2022-11-14T00:37:27.860Z,100772.00
2022-11-14T00:40:01.022Z,100765.00
2022-11-14T00:42:32.969Z,100767.00
2022-11-14T00:45:04.814Z,100759.00
2022-11-14T00:47:36.694Z,100765.00
2022-11-14T00:50:09.877Z,100759.00
2022-11-14T00:52:40.553Z,100762.00
2022-11-14T00:55:16.238Z,100756.00
2022-11-14T00:57:47.389Z,100754.00
2022-11-14T01:00:29.038Z,100750.00
2022-11-14T01:03:01.277Z,100750.00
2022-11-14T01:05:32.400Z,100741.00
2022-11-14T01:08:05.034Z,100746.00
2022-11-14T01:10:45.771Z,100751.00
2022-11-14T01:13:23.266Z,100738.00
2022-11-14T01:15:57.892Z,100736.00
2022-11-14T01:18:34.047Z,100731.00
2022-11-14T01:21:24.469Z,100736.00
2022-11-14T01:24:07.144Z,100733.00
2022-11-14T01:26:44.135Z,100720.00
2022-11-14T01:29:23.433Z,100717.00
2022-11-14T01:31:57.858Z,100712.00
2022-11-14T01:34:30.704Z,100706.00
2022-11-14T01:37:01.081Z,100698.00
2022-11-14T01:39:30.662Z,100685.00
2022-11-14T01:42:00.377Z,100686.00
2022-11-14T01:44:53.175Z,100674.00
2022-11-14T01:47:33.500Z,100679.00
2022-11-14T01:50:15.555Z,100657.00
2022-11-14T01:52:48.368Z,100664.00
2022-11-14T01:55:17.349Z,100652.00
2022-11-14T01:57:49.599Z,100646.00
2022-11-14T02:00:27.246Z,100634.00
2022-11-14T02:03:03.721Z,100643.00
2022-11-14T02:05:34.036Z,100636.00
2022-11-14T02:08:17.493Z,100630.00
2022-11-14T02:10:50.682Z,100631.00
2022-11-14T02:13:25.271Z,100630.00
2022-11-14T02:15:54.631Z,100632.00
2022-11-14T02:18:27.532Z,100619.00
2022-11-14T02:20:58.760Z,100619.00
2022-11-14T02:23:29.562Z,100616.00
2022-11-14T02:25:59.365Z,100611.00
2022-11-14T02:28:29.279Z,100611.00
2022-11-14T02:31:00.395Z,100602.00
2022-11-14T02:33:32.803Z,100606.00
2022-11-14T02:36:06.133Z,100601.00
2022-11-14T02:38:35.910Z,100597.00
2022-11-14T02:41:12.060Z,100603.00
2022-11-14T02:43:41.236Z,100590.00
2022-11-14T02:46:14.076Z,100592.00
2022-11-14T02:48:48.070Z,100579.00
2022-11-14T02:51:22.752Z,100595.00
2022-11-14T02:53:53.958Z,100594.00
2022-11-14T02:56:26.713Z,100583.00
2022-11-14T02:58:57.405Z,100589.00
2022-11-14T03:01:30.855Z,100592.00
2022-11-14T03:04:00.247Z,100580.00
2022-11-14T03:06:32.796Z,100577.00
2022-11-14T03:09:04.957Z,100571.00
2022-11-14T03:11:35.674Z,100588.00
2022-11-14T03:14:06.169Z,100581.00
2022-11-14T03:16:35.300Z,100582.00
2022-11-14T03:19:07.261Z,100593.00
2022-11-14T03:21:38.123Z,100591.00
2022-11-14T03:24:16.547Z,100583.00
2022-11-14T03:26:48.657Z,100587.00
2022-11-14T03:29:21.499Z,100594.00
2022-11-14T03:31:53.864Z,100586.00
2022-11-14T03:34:28.477Z,100583.00
2022-11-14T03:37:00.545Z,100574.00
2022-11-14T03:39:29.527Z,100577.00
2022-11-14T03:41:59.299Z,100570.00
2022-11-14T03:44:30.477Z,100571.00
2022-11-14T03:47:11.777Z,100572.00
2022-11-14T03:49:41.898Z,100559.00
2022-11-14T03:52:13.153Z,100570.00
2022-11-14T03:57:28.170Z,100566.00
2022-11-14T03:59:58.322Z,100562.00
2022-11-14T04:02:28.130Z,100557.00
2022-11-14T04:05:04.636Z,100556.00
2022-11-14T04:07:37.268Z,100542.00
2022-11-14T04:10:08.624Z,100541.00
2022-11-14T04:12:38.803Z,100527.00
2022-11-14T04:15:08.602Z,100530.00
2022-11-14T04:17:40.031Z,100525.00
2022-11-14T04:20:10.385Z,100526.00
2022-11-14T04:22:45.113Z,100515.00
2022-11-14T04:25:14.148Z,100523.00
2022-11-14T04:27:42.985Z,100518.00
2022-11-14T04:30:13.357Z,100517.00
2022-11-14T04:32:46.238Z,100513.00
2022-11-14T04:35:16.455Z,100500.00
2022-11-14T04:37:47.170Z,100501.00
2022-11-14T04:40:17.226Z,100513.00
2022-11-14T04:42:50.011Z,100503.00
2022-11-14T04:45:19.647Z,100502.00
2022-11-14T04:47:49.315Z,100497.00
2022-11-14T04:50:18.740Z,100500.00
2022-11-14T04:52:53.556Z,100505.00
2022-11-14T04:55:22.727Z,100500.00
2022-11-14T04:57:56.587Z,100493.00
2022-11-14T05:00:26.685Z,100498.00
2022-11-14T05:02:55.936Z,100497.00
2022-11-14T05:05:24.687Z,100500.00
2022-11-14T05:07:56.322Z,100505.00
2022-11-14T05:10:26.110Z,100495.00
2022-11-14T05:12:57.762Z,100484.00
2022-11-14T05:15:26.707Z,100487.00
2022-11-14T05:17:55.519Z,100490.00
2022-11-14T05:20:24.306Z,100495.00
2022-11-14T05:22:56.863Z,100493.00
2022-11-14T05:25:25.750Z,100491.00
2022-11-14T05:27:54.584Z,100491.00
2022-11-14T05:30:23.342Z,100504.00
2022-11-14T05:32:53.510Z,100509.00
2022-11-14T05:35:22.308Z,100504.00
2022-11-14T05:37:52.961Z,100507.00
2022-11-14T05:40:26.635Z,100510.00
2022-11-14T05:42:57.321Z,100499.00
2022-11-14T05:45:26.468Z,100504.00
2022-11-14T05:47:55.644Z,100507.00
2022-11-14T05:50:24.402Z,100507.00
2022-11-14T05:52:53.359Z,100510.00
2022-11-14T05:55:25.071Z,100505.00
2022-11-14T05:57:58.871Z,100506.00
2022-11-14T06:00:28.329Z,100492.00
2022-11-14T06:02:57.696Z,100506.00
2022-11-14T06:05:26.464Z,100510.00
2022-11-14T06:07:58.877Z,100520.00
2022-11-14T06:10:28.218Z,100521.00
2022-11-14T06:12:58.425Z,100527.00
2022-11-14T06:15:27.255Z,100523.00
2022-11-14T06:17:57.848Z,100514.00
2022-11-14T06:20:26.692Z,100515.00
2022-11-14T06:22:56.373Z,100525.00
2022-11-14T06:25:25.091Z,100528.00
2022-11-14T06:27:53.758Z,100527.00
2022-11-14T06:30:23.911Z,100530.00
2022-11-14T06:32:57.582Z,100522.00
2022-11-14T06:35:26.395Z,100524.00
2022-11-14T06:37:55.159Z,100535.00
2022-11-14T06:40:24.035Z,100524.00
2022-11-14T06:42:52.692Z,100537.00
2022-11-14T06:45:22.860Z,100529.00
2022-11-14T06:47:56.684Z,100538.00
2022-11-14T06:50:25.495Z,100542.00
2022-11-14T06:52:54.322Z,100542.00
2022-11-14T06:55:25.430Z,100536.00
2022-11-14T06:57:55.693Z,100545.00
2022-11-14T07:00:26.077Z,100547.00
2022-11-14T07:02:54.965Z,100554.00
2022-11-14T07:05:23.725Z,100558.00
2022-11-14T07:07:52.585Z,100549.00
2022-11-14T07:10:21.390Z,100546.00
2022-11-14T07:12:50.107Z,100548.00
2022-11-14T07:15:18.897Z,100557.00
2022-11-14T07:17:49.383Z,100552.00
2022-11-14T07:20:19.629Z,100547.00
2022-11-14T07:22:48.492Z,100547.00
2022-11-14T07:25:17.337Z,100551.00
2022-11-14T07:27:46.145Z,100567.00
2022-11-14T07:30:15.670Z,100562.00
2022-11-14T07:32:44.370Z,100552.00
2022-11-14T07:35:14.705Z,100569.00
2022-11-14T07:37:43.597Z,100565.00
2022-11-14T07:40:13.445Z,100549.00
2022-11-14T07:42:42.236Z,100548.00
2022-11-14T07:45:12.184Z,100544.00
2022-11-14T07:47:40.925Z,100542.00
2022-11-14T07:50:10.526Z,100536.00
2022-11-14T07:52:40.644Z,100535.00
2022-11-14T07:55:09.966Z,100537.00
2022-11-14T07:57:42.840Z,100530.00
2022-11-14T08:00:15.400Z,100535.00
2022-11-14T08:02:44.077Z,100532.00
2022-11-14T08:05:12.748Z,100537.00
2022-11-14T08:07:42.866Z,100543.00
2022-11-14T08:10:13.646Z,100547.00
2022-11-14T08:12:42.735Z,100546.00
2022-11-14T08:15:13.709Z,100528.00
2022-11-14T08:17:42.696Z,100538.00
2022-11-14T08:20:12.361Z,100522.00
2022-11-14T08:22:42.578Z,100528.00
2022-11-14T08:25:11.554Z,100537.00
2022-11-14T08:27:40.295Z,100522.00
2022-11-14T08:30:10.323Z,100530.00
2022-11-14T08:32:39.236Z,100534.00
2022-11-14T08:35:09.185Z,100534.00
2022-11-14T08:37:37.991Z,100536.00
2022-11-14T08:40:09.067Z,100523.00
2022-11-14T08:42:37.735Z,100494.00
2022-11-14T08:45:07.565Z,100512.00
2022-11-14T08:47:36.363Z,100509.00
2022-11-14T08:50:05.918Z,100501.00
2022-11-14T08:52:34.904Z,100513.00
2022-11-14T08:55:04.108Z,100511.00
2022-11-14T08:57:35.968Z,100516.00
2022-11-14T09:00:05.454Z,100514.00
2022-11-14T09:02:34.327Z,100528.00
2022-11-14T09:05:03.144Z,100530.00
2022-11-14T09:07:32.056Z,100535.00
2022-11-14T09:10:01.173Z,100530.00
2022-11-14T09:12:29.991Z,100543.00
2022-11-14T09:15:00.360Z,100540.00
2022-11-14T09:17:29.316Z,100532.00
2022-11-14T09:19:58.814Z,100524.00
2022-11-14T09:22:27.677Z,100515.00
2022-11-14T09:24:56.630Z,100517.00
2022-11-14T09:27:27.830Z,100515.00
2022-11-14T09:29:56.520Z,100513.00
2022-11-14T09:32:26.799Z,100507.00
2022-11-14T09:35:00.333Z,100513.00
2022-11-14T09:37:29.299Z,100497.00
2022-11-14T09:39:58.282Z,100505.00
2022-11-14T09:42:40.536Z,100499.00
2022-11-14T09:45:14.144Z,100502.00
2022-11-14T09:47:47.635Z,100485.00
2022-11-14T09:50:24.471Z,100486.00
2022-11-14T09:53:03.619Z,100495.00
2022-11-14T09:55:37.056Z,100489.00
2022-11-14T09:58:08.676Z,100484.00
2022-11-14T10:00:49.452Z,100475.00
2022-11-14T10:03:27.441Z,100469.00
2022-11-14T10:06:14.119Z,100476.00
2022-11-14T10:08:52.392Z,100475.00
2022-11-14T10:11:34.978Z,100481.00
2022-11-14T10:14:32.667Z,100475.00
2022-11-14T10:17:13.310Z,100466.00
2022-11-14T10:19:48.787Z,100482.00
2022-11-14T10:22:28.641Z,100472.00
2022-11-14T10:25:15.067Z,100475.00
2022-11-14T10:27:56.624Z,100459.00
2022-11-14T10:30:36.843Z,100464.00
2022-11-14T10:33:20.311Z,100466.00
2022-11-14T10:35:56.267Z,100458.00
2022-11-14T10:38:32.368Z,100468.00
2022-11-14T10:41:03.858Z,100474.00
2022-11-14T10:43:36.778Z,100466.00
2022-11-14T10:46:11.693Z,100476.00
2022-11-14T10:48:47.399Z,100466.00
2022-11-14T10:51:25.669Z,100462.00
2022-11-14T10:53:58.035Z,100465.00
2022-11-14T10:56:34.502Z,100463.00
2022-11-14T10:59:03.167Z,100463.00
2022-11-14T11:01:39.921Z,100465.00
2022-11-14T11:04:21.748Z,100455.00
2022-11-14T11:06:54.536Z,100453.00
2022-11-14T11:09:45.797Z,100455.00
2022-11-14T11:12:20.091Z,100440.00
2022-11-14T11:14:50.790Z,100430.00
2022-11-14T11:17:23.364Z,100429.00
2022-11-14T11:19:52.399Z,100426.00
2022-11-14T11:22:32.894Z,100426.00
2022-11-14T11:25:01.792Z,100416.00
2022-11-14T11:27:32.060Z,100420.00
2022-11-14T11:30:18.598Z,100424.00
2022-11-14T11:32:47.656Z,100435.00
2022-11-14T11:35:18.760Z,100432.00
2022-11-14T11:37:55.987Z,100431.00
2022-11-14T11:40:28.313Z,100444.00
2022-11-14T11:45:56.330Z,100443.00
2022-11-14T11:48:32.307Z,100442.00
2022-11-14T11:51:04.576Z,100437.00
2022-11-14T11:53:39.486Z,100451.00
2022-11-14T11:56:14.244Z,100462.00
2022-11-14T11:58:47.225Z,100466.00
2022-11-14T12:01:17.551Z,100465.00
2022-11-14T12:03:49.876Z,100460.00
2022-11-14T12:06:24.910Z,100454.00
2022-11-14T12:09:09.525Z,100442.00
2022-11-14T12:11:44.465Z,100437.00
2022-11-14T12:14:43.459Z,100445.00
2022-11-14T12:17:33.699Z,100451.00
2022-11-14T12:20:34.571Z,100446.00
2022-11-14T12:23:28.988Z,100450.00
2022-11-14T12:26:12.103Z,100436.00
2022-11-14T12:28:59.309Z,100444.00
2022-11-14T12:31:35.397Z,100445.00
2022-11-14T12:34:08.982Z,100434.00
2022-11-14T12:36:39.622Z,100434.00
2022-11-14T12:39:22.324Z,100435.00
2022-11-14T12:42:01.599Z,100444.00
2022-11-14T12:44:39.131Z,100444.00
2022-11-14T12:47:17.326Z,100451.00
2022-11-14T12:50:07.682Z,100441.00
2022-11-14T12:52:49.717Z,100443.00
2022-11-14T12:55:51.618Z,100431.00
2022-11-14T12:58:31.024Z,100425.00
2022-11-14T13:01:23.586Z,100432.00
2022-11-14T13:04:09.643Z,100422.00
2022-11-14T13:06:49.085Z,100418.00
2022-11-14T13:09:42.903Z,100422.00
2022-11-14T13:12:45.582Z,100426.00
2022-11-14T13:15:48.808Z,100422.00
2022-11-14T13:18:41.852Z,100419.00
2022-11-14T13:21:44.982Z,100416.00
2022-11-14T13:24:17.069Z,100414.00
2022-11-14T13:26:54.168Z,100415.00
2022-11-14T13:29:50.555Z,100402.00
2022-11-14T13:33:05.208Z,100426.00
2022-11-14T13:36:05.047Z,100422.00
2022-11-14T13:39:20.770Z,100422.00
2022-11-14T13:42:20.545Z,100403.00
2022-11-14T13:45:26.438Z,100407.00
2022-11-14T13:48:47.228Z,100390.00
2022-11-14T13:54:17.510Z,100386.00
2022-11-14T13:57:00.942Z,100382.00
2022-11-14T13:59:56.833Z,100374.00
2022-11-14T14:02:50.041Z,100395.00
2022-11-14T14:05:28.933Z,100389.00
2022-11-14T14:08:14.981Z,100392.00
2022-11-14T14:10:56.817Z,100390.00
2022-11-14T14:13:43.468Z,100389.00
2022-11-14T14:16:19.402Z,100382.00
2022-11-14T14:19:01.354Z,100389.00
2022-11-14T14:21:39.581Z,100394.00
2022-11-14T14:24:23.159Z,100381.00
2022-11-14T14:27:02.391Z,100385.00
2022-11-14T14:29:42.103Z,100388.00
2022-11-14T14:32:14.650Z,100387.00
2022-11-14T14:34:43.540Z,100388.00
2022-11-14T14:37:19.783Z,100370.00
2022-11-14T14:40:00.690Z,100365.00
2022-11-14T14:42:35.307Z,100370.00
2022-11-14T14:45:05.787Z,100374.00
2022-11-14T14:47:41.275Z,100375.00
2022-11-14T14:50:18.871Z,100365.00
2022-11-14T14:52:48.200Z,100365.00
2022-11-14T14:55:26.965Z,100373.00
2022-11-14T14:57:56.005Z,100365.00
2022-11-14T15:00:27.245Z,100368.00
2022-11-14T15:02:58.187Z,100373.00
2022-11-14T15:05:29.405Z,100364.00
2022-11-14T15:08:02.057Z,100369.00
2022-11-14T15:10:33.811Z,100376.00
2022-11-14T15:13:02.646Z,100370.00
2022-11-14T15:15:31.887Z,100355.00
2022-11-14T15:18:07.172Z,100349.00
2022-11-14T15:20:35.798Z,100348.00
2022-11-14T15:23:06.087Z,100352.00
2022-11-14T15:25:36.385Z,100349.00
2022-11-14T15:28:08.530Z,100357.00
2022-11-14T15:30:39.540Z,100356.00
2022-11-14T15:33:28.115Z,100368.00
2022-11-14T15:36:09.518Z,100376.00
2022-11-14T15:38:46.416Z,100367.00
2022-11-14T15:41:22.178Z,100366.00
2022-11-14T15:43:53.250Z,100367.00
2022-11-14T15:46:50.186Z,100367.00
2022-11-14T15:49:24.612Z,100364.00
2022-11-14T15:52:00.177Z,100363.00
2022-11-14T15:54:32.153Z,100360.00
2022-11-14T15:57:07.969Z,100363.00
2022-11-14T15:59:38.467Z,100347.00
2022-11-14T16:02:16.082Z,100352.00
2022-11-14T16:04:47.785Z,100344.00
2022-11-14T16:07:18.592Z,100348.00
2022-11-14T16:09:47.544Z,100370.00
2022-11-14T16:12:18.486Z,100373.00
2022-11-14T16:14:47.244Z,100366.00
2022-11-14T16:17:17.722Z,100370.00
2022-11-14T16:19:46.937Z,100368.00
2022-11-14T16:22:18.624Z,100373.00
2022-11-14T16:24:47.357Z,100376.00
2022-11-14T16:27:17.584Z,100372.00
2022-11-14T16:29:46.511Z,100378.00
2022-11-14T16:32:15.399Z,100369.00
2022-11-14T16:34:46.664Z,100385.00
2022-11-14T16:37:16.432Z,100379.00
2022-11-14T16:39:45.303Z,100372.00
2022-11-14T16:42:17.673Z,100369.00
2022-11-14T16:44:50.829Z,100364.00
2022-11-14T16:47:20.737Z,100369.00
2022-11-14T16:49:49.665Z,100359.00
2022-11-14T16:52:19.271Z,100365.00
2022-11-14T16:54:48.043Z,100374.00
2022-11-14T16:57:16.907Z,100368.00
2022-11-14T16:59:47.092Z,100361.00
2022-11-14T17:02:16.817Z,100363.00
2022-11-14T17:04:46.403Z,100361.00
2022-11-14T17:07:17.728Z,100360.00
2022-11-14T17:09:50.381Z,100353.00
2022-11-14T17:12:19.134Z,100347.00
2022-11-14T17:14:49.312Z,100356.00
2022-11-14T17:17:18.029Z,100349.00
2022-11-14T17:19:46.773Z,100362.00
2022-11-14T17:22:16.214Z,100365.00
2022-11-14T17:24:45.018Z,100365.00
2022-11-14T17:27:14.045Z,100374.00
2022-11-14T17:29:42.732Z,100360.00
2022-11-14T17:32:12.743Z,100375.00
2022-11-14T17:34:41.566Z,100365.00
2022-11-14T17:37:10.245Z,100361.00
2022-11-14T17:39:38.966Z,100369.00
2022-11-14T17:42:08.505Z,100366.00
2022-11-14T17:44:37.203Z,100355.00
2022-11-14T17:47:05.852Z,100360.00
2022-11-14T17:49:35.939Z,100356.00
2022-11-14T17:52:04.638Z,100359.00
2022-11-14T17:54:37.521Z,100362.00
2022-11-14T17:57:06.434Z,100360.00
2022-11-14T17:59:36.572Z,100359.00
2022-11-14T18:02:05.373Z,100355.00
2022-11-14T18:04:35.622Z,100357.00
2022-11-14T18:07:04.523Z,100355.00
2022-11-14T18:09:33.229Z,100368.00
2022-11-14T18:12:01.942Z,100361.00
2022-11-14T18:14:30.659Z,100363.00
2022-11-14T18:17:12.292Z,100352.00
2022-11-14T18:19:43.455Z,100367.00
2022-11-14T18:22:12.249Z,100364.00
2022-11-14T18:24:46.681Z,100349.00
2022-11-14T18:27:15.385Z,100346.00
2022-11-14T18:29:44.166Z,100345.00
2022-11-14T18:32:15.653Z,100335.00
2022-11-14T18:34:45.846Z,100321.00
2022-11-14T18:37:14.505Z,100330.00
2022-11-14T18:39:43.257Z,100325.00
2022-11-14T18:42:12.034Z,100323.00
2022-11-14T18:44:40.775Z,100330.00
2022-11-14T18:47:09.525Z,100322.00
2022-11-14T18:49:38.200Z,100317.00
2022-11-14T18:52:12.870Z,100315.00
2022-11-14T18:54:45.491Z,100312.00
2022-11-14T18:57:17.283Z,100305.00
2022-11-14T18:59:45.980Z,100301.00
2022-11-14T19:02:14.745Z,100298.00
2022-11-14T19:04:43.487Z,100295.00
2022-11-14T19:07:14.581Z,100288.00
2022-11-14T19:09:44.414Z,100294.00
2022-11-14T19:12:23.536Z,100300.00
2022-11-14T19:14:53.818Z,100308.00
2022-11-14T19:17:22.764Z,100298.00
2022-11-14T19:19:53.957Z,100295.00
2022-11-14T19:22:24.145Z,100297.00
2022-11-14T19:24:52.916Z,100299.00
2022-11-14T19:27:22.033Z,100300.00
2022-11-14T19:29:51.262Z,100301.00
2022-11-14T19:32:19.933Z,100304.00
2022-11-14T19:34:48.593Z,100305.00
2022-11-14T19:37:17.331Z,100308.00
2022-11-14T19:39:48.202Z,100305.00
2022-11-14T19:42:17.044Z,100312.00
2022-11-14T19:44:47.064Z,100312.00
2022-11-14T19:47:15.802Z,100312.00
2022-11-14T19:49:44.606Z,100318.00
2022-11-14T19:52:14.157Z,100318.00
2022-11-14T19:54:42.879Z,100308.00
2022-11-14T19:57:13.093Z,100307.00
2022-11-14T19:59:42.572Z,100306.00
2022-11-14T20:02:14.989Z,100307.00
2022-11-14T20:04:43.824Z,100312.00
2022-11-14T20:07:12.589Z,100315.00
2022-11-14T20:09:41.474Z,100315.00
2022-11-14T20:12:10.240Z,100311.00
2022-11-14T20:14:40.401Z,100316.00
2022-11-14T20:17:09.157Z,100315.00
2022-11-14T20:19:37.980Z,100305.00
2022-11-14T20:22:07.610Z,100308.00
2022-11-14T20:24:36.301Z,100309.00
2022-11-14T20:27:05.570Z,100304.00
2022-11-14T20:29:34.390Z,100297.00
2022-11-14T20:32:04.857Z,100296.00
2022-11-14T20:34:35.267Z,100305.00
2022-11-14T20:37:11.157Z,100294.00
2022-11-14T20:39:40.615Z,100283.00
2022-11-14T20:42:09.410Z,100283.00
2022-11-14T20:44:38.144Z,100289.00
2022-11-14T20:47:10.983Z,100283.00
2022-11-14T20:49:40.270Z,100290.00
2022-11-14T20:52:09.000Z,100282.00
2022-11-14T20:54:37.858Z,100284.00
2022-11-14T20:57:06.656Z,100281.00
2022-11-14T20:59:35.430Z,100287.00
2022-11-14T21:02:04.436Z,100285.00
2022-11-14T21:04:34.618Z,100285.00
2022-11-14T21:07:03.428Z,100283.00
2022-11-14T21:09:32.200Z,100275.00
2022-11-14T21:12:00.889Z,100273.00
2022-11-14T21:14:29.560Z,100270.00
2022-11-14T21:16:58.293Z,100277.00
2022-11-14T21:19:29.122Z,100274.00
2022-11-14T21:21:59.366Z,100274.00
2022-11-14T21:24:28.017Z,100264.00
2022-11-14T21:26:56.723Z,100271.00
2022-11-14T21:29:27.398Z,100272.00
2022-11-14T21:31:56.146Z,100265.00
2022-11-14T21:34:24.971Z,100260.00
2022-11-14T21:36:53.744Z,100257.00
2022-11-14T21:39:24.094Z,100263.00
2022-11-14T21:41:53.881Z,100267.00
2022-11-14T21:44:22.673Z,100266.00
2022-11-14T21:46:51.997Z,100263.00
2022-11-14T21:49:20.897Z,100265.00
2022-11-14T21:51:49.851Z,100262.00
2022-11-14T21:54:18.669Z,100253.00
2022-11-14T21:56:48.763Z,100260.00
2022-11-14T21:59:21.404Z,100261.00
2022-11-14T22:02:09.717Z,100255.00
2022-11-14T22:04:39.040Z,100254.00
2022-11-14T22:07:09.575Z,100260.00
2022-11-14T22:09:43.987Z,100252.00
2022-11-14T22:12:15.315Z,100254.00
2022-11-14T22:14:44.003Z,100248.00
2022-11-14T22:17:12.778Z,100248.00
2022-11-14T22:19:41.532Z,100249.00
2022-11-14T22:22:10.283Z,100234.00
2022-11-14T22:24:39.047Z,100238.00
2022-11-14T22:27:07.767Z,100239.00
2022-11-14T22:29:38.029Z,100230.00
2022-11-14T22:32:06.988Z,100232.00
2022-11-14T22:34:35.681Z,100238.00
2022-11-14T22:37:04.489Z,100247.00
2022-11-14T22:39:33.252Z,100234.00
2022-11-14T22:42:01.986Z,100239.00
2022-11-14T22:44:30.657Z,100246.00
2022-11-14T22:47:00.767Z,100254.00
2022-11-14T22:49:29.426Z,100255.00
2022-11-14T22:51:58.315Z,100255.00
2022-11-14T22:54:27.090Z,100255.00
2022-11-14T22:56:55.796Z,100251.00
2022-11-14T22:59:24.562Z,100257.00
2022-11-14T23:01:53.290Z,100246.00
2022-11-14T23:04:23.499Z,100246.00
2022-11-14T23:06:52.243Z,100247.00
2022-11-14T23:09:21.081Z,100249.00
2022-11-14T23:11:49.686Z,100249.00
2022-11-14T23:14:18.554Z,100241.00
2022-11-14T23:16:47.246Z,100239.00
2022-11-14T23:19:15.910Z,100242.00
2022-11-14T23:21:45.969Z,100238.00
2022-11-14T23:24:15.996Z,100232.00
2022-11-14T23:26:45.008Z,100231.00
2022-11-14T23:29:15.201Z,100226.00
2022-11-14T23:31:44.010Z,100230.00
2022-11-14T23:34:12.713Z,100226.00
2022-11-14T23:36:41.420Z,100229.00
2022-11-14T23:39:11.549Z,100224.00
2022-11-14T23:41:40.265Z,100221.00
2022-11-14T23:44:08.919Z,100217.00
2022-11-14T23:46:37.609Z,100207.00
2022-11-14T23:49:06.307Z,100211.00
2022-11-14T23:51:34.988Z,100209.00
2022-11-14T23:54:03.645Z,100209.00
2022-11-14T23:56:33.738Z,100201.00
2022-11-14T23:59:02.434Z,100210.00
